Cochiti Pueblo, New Mexico
Current Conditions -  °F | °C
As of 11:53 PM on Saturday 22 Nov 2014 (Local Time) from KSAF Reporting Station
Overcast Overcast  
Wind Chill: 38°   Ceiling: 7000
Heat Index: 38°   Visibility: 10mi
Dew Point: 15°   Wind: 0mph
Humidity: 39%   Direction: NA
Pressure: 29.81"   Gusts: NA
Location:  35.61°N, 106.34°W
Report Text: KSAF 230653Z AUTO 00000KT 10SM BKN070 OVC095 03/M09 A2981 RMK AO2 SLP055 T00331094 401331033
Loading
Personal Weather Stations






























Interactive Weather Map New forecast layout! Learn more

10-Day Weather Forecast

Advertisements
Track Severe Weather on mobile